sensor_id;sensor_type;location;lat;lon;timestamp;pressure;altitude;pressure_sealevel;temperature;humidity
76285;BME280;65096;50.998;7.098;2023-06-10T13:49:52;100668.22;;;30.24;21.81
76285;BME280;65096;50.998;7.098;2023-06-10T13:52:19;100677.19;;;30.45;20.14
76285;BME280;65096;50.998;7.098;2023-06-10T13:54:45;100678.00;;;30.69;20.77
76285;BME280;65096;50.998;7.098;2023-06-10T13:57:12;100673.06;;;30.98;19.73
76285;BME280;65096;50.998;7.098;2023-06-10T13:59:39;100671.72;;;30.92;18.61
76285;BME280;65096;50.998;7.098;2023-06-10T14:02:06;100670.63;;;31.39;19.51
76285;BME280;65096;50.998;7.098;2023-06-10T14:04:32;100672.44;;;31.39;20.15
76285;BME280;65096;50.998;7.098;2023-06-10T14:07:00;100670.69;;;31.17;19.32
76285;BME280;65096;50.998;7.098;2023-06-10T14:09:27;100665.56;;;31.25;20.06
76285;BME280;65096;50.998;7.098;2023-06-10T14:11:54;100678.13;;;31.45;20.47
76285;BME280;65096;50.998;7.098;2023-06-10T14:14:20;100673.91;;;31.54;20.50
76285;BME280;65096;50.998;7.098;2023-06-10T14:16:47;100663.25;;;31.54;20.06
76285;BME280;65096;50.998;7.098;2023-06-10T14:19:14;100675.66;;;31.10;20.12
76285;BME280;65096;50.998;7.098;2023-06-10T14:21:40;100672.94;;;30.88;20.22
76285;BME280;65096;50.998;7.098;2023-06-10T14:24:09;100672.56;;;30.71;19.75
76285;BME280;65096;50.998;7.098;2023-06-10T14:26:35;100675.50;;;30.90;20.72
76285;BME280;65096;50.998;7.098;2023-06-10T14:29:02;100672.34;;;30.85;20.67
76285;BME280;65096;50.998;7.098;2023-06-10T14:31:28;100664.47;;;30.83;21.08
76285;BME280;65096;50.998;7.098;2023-06-10T14:33:55;100667.84;;;30.96;21.51
76285;BME280;65096;50.998;7.098;2023-06-10T14:36:21;100669.06;;;30.92;21.57
76285;BME280;65096;50.998;7.098;2023-06-10T14:38:48;100668.34;;;30.79;21.55
76285;BME280;65096;50.998;7.098;2023-06-10T14:41:16;100663.75;;;30.70;21.77
76285;BME280;65096;50.998;7.098;2023-06-10T14:43:43;100661.81;;;30.72;21.98
76285;BME280;65096;50.998;7.098;2023-06-10T14:46:09;100659.84;;;30.63;22.12
76285;BME280;65096;50.998;7.098;2023-06-10T14:48:36;100667.22;;;30.60;22.73
76285;BME280;65096;50.998;7.098;2023-06-10T14:51:03;100659.38;;;30.69;22.65
76285;BME280;65096;50.998;7.098;2023-06-10T14:53:29;100655.75;;;30.70;22.57
76285;BME280;65096;50.998;7.098;2023-06-10T14:55:56;100646.13;;;30.46;22.66
76285;BME280;65096;50.998;7.098;2023-06-10T14:58:24;100647.28;;;30.54;23.79
76285;BME280;65096;50.998;7.098;2023-06-10T15:00:50;100638.78;;;30.49;22.60
76285;BME280;65096;50.998;7.098;2023-06-10T15:03:17;100639.41;;;30.53;21.82
76285;BME280;65096;50.998;7.098;2023-06-10T15:05:44;100631.72;;;30.37;22.40
76285;BME280;65096;50.998;7.098;2023-06-10T15:08:11;100636.34;;;30.46;22.42
76285;BME280;65096;50.998;7.098;2023-06-10T15:10:37;100633.66;;;30.35;22.54
76285;BME280;65096;50.998;7.098;2023-06-10T15:13:04;100633.28;;;30.40;22.38
76285;BME280;65096;50.998;7.098;2023-06-10T15:15:32;100628.41;;;29.88;20.95
76285;BME280;65096;50.998;7.098;2023-06-10T15:17:59;100614.41;;;29.62;21.07
76285;BME280;65096;50.998;7.098;2023-06-10T15:20:25;100631.47;;;29.71;19.43
76285;BME280;65096;50.998;7.098;2023-06-10T15:22:52;100628.19;;;29.67;20.60
76285;BME280;65096;50.998;7.098;2023-06-10T15:25:19;100623.31;;;29.38;20.18
76285;BME280;65096;50.998;7.098;2023-06-10T15:27:45;100618.38;;;29.57;20.30
76285;BME280;65096;50.998;7.098;2023-06-10T15:30:12;100623.00;;;29.66;20.23
76285;BME280;65096;50.998;7.098;2023-06-10T15:32:40;100622.44;;;29.50;20.10
76285;BME280;65096;50.998;7.098;2023-06-10T15:35:07;100629.44;;;29.15;19.89
76285;BME280;65096;50.998;7.098;2023-06-10T15:37:34;100614.47;;;29.14;20.43
76285;BME280;65096;50.998;7.098;2023-06-10T15:40:01;100623.19;;;29.39;20.70
76285;BME280;65096;50.998;7.098;2023-06-10T15:42:27;100599.94;;;29.30;20.83
76285;BME280;65096;50.998;7.098;2023-06-10T15:44:54;100617.84;;;29.16;20.17
76285;BME280;65096;50.998;7.098;2023-06-10T15:47:21;100623.84;;;28.82;20.13
76285;BME280;65096;50.998;7.098;2023-06-10T15:49:48;100598.69;;;28.75;20.67
76285;BME280;65096;50.998;7.098;2023-06-10T15:52:15;100615.34;;;29.02;20.57
76285;BME280;65096;50.998;7.098;2023-06-10T15:54:42;100615.66;;;28.85;20.82
76285;BME280;65096;50.998;7.098;2023-06-10T15:57:08;100611.50;;;28.81;21.07
76285;BME280;65096;50.998;7.098;2023-06-10T15:59:35;100609.06;;;28.90;21.54
76285;BME280;65096;50.998;7.098;2023-06-10T16:02:02;100614.59;;;29.00;21.49
76285;BME280;65096;50.998;7.098;2023-06-10T16:04:29;100568.13;;;28.82;21.97
76285;BME280;65096;50.998;7.098;2023-06-10T16:06:57;100608.03;;;28.80;21.82
76285;BME280;65096;50.998;7.098;2023-06-10T16:09:24;100602.41;;;28.85;21.97
76285;BME280;65096;50.998;7.098;2023-06-10T16:11:50;100608.53;;;28.85;22.62
76285;BME280;65096;50.998;7.098;2023-06-10T16:14:17;100596.13;;;28.86;22.10
76285;BME280;65096;50.998;7.098;2023-06-10T16:16:44;100595.19;;;28.74;21.95
76285;BME280;65096;50.998;7.098;2023-06-10T16:19:10;100594.56;;;28.71;22.21
76285;BME280;65096;50.998;7.098;2023-06-10T16:21:37;100589.56;;;28.66;22.02
76285;BME280;65096;50.998;7.098;2023-06-10T16:24:08;100598.59;;;28.64;22.01
76285;BME280;65096;50.998;7.098;2023-06-10T16:26:34;100593.06;;;28.41;22.50
76285;BME280;65096;50.998;7.098;2023-06-10T16:29:01;100607.59;;;28.36;21.43
76285;BME280;65096;50.998;7.098;2023-06-10T16:31:28;100597.19;;;28.08;22.17
76285;BME280;65096;50.998;7.098;2023-06-10T16:33:54;100594.75;;;28.17;22.35
76285;BME280;65096;50.998;7.098;2023-06-10T16:36:21;100567.59;;;28.01;22.39
76285;BME280;65096;50.998;7.098;2023-06-10T16:38:48;100598.34;;;28.16;22.45
76285;BME280;65096;50.998;7.098;2023-06-10T16:41:16;100597.84;;;28.24;22.60
76285;BME280;65096;50.998;7.098;2023-06-10T16:43:42;100600.16;;;28.28;23.37
76285;BME280;65096;50.998;7.098;2023-06-10T16:46:09;100604.50;;;28.29;22.80
76285;BME280;65096;50.998;7.098;2023-06-10T16:48:35;100605.13;;;28.08;22.77
76285;BME280;65096;50.998;7.098;2023-06-10T16:51:02;100601.69;;;27.93;22.63
76285;BME280;65096;50.998;7.098;2023-06-10T16:53:29;100600.34;;;28.00;23.15
76285;BME280;65096;50.998;7.098;2023-06-10T16:55:55;100611.19;;;27.83;22.96
76285;BME280;65096;50.998;7.098;2023-06-10T16:58:23;100602.00;;;27.89;22.88
76285;BME280;65096;50.998;7.098;2023-06-10T17:00:50;100602.84;;;27.89;23.32
76285;BME280;65096;50.998;7.098;2023-06-10T17:03:18;100599.88;;;27.94;23.28
76285;BME280;65096;50.998;7.098;2023-06-10T17:05:44;100600.44;;;27.99;23.64
76285;BME280;65096;50.998;7.098;2023-06-10T17:08:11;100605.94;;;27.96;23.97
76285;BME280;65096;50.998;7.098;2023-06-10T17:10:37;100601.03;;;27.90;23.42
76285;BME280;65096;50.998;7.098;2023-06-10T17:13:04;100610.88;;;27.88;23.59
76285;BME280;65096;50.998;7.098;2023-06-10T17:15:32;100612.53;;;27.76;23.60
76285;BME280;65096;50.998;7.098;2023-06-10T17:17:59;100604.31;;;27.81;24.46
76285;BME280;65096;50.998;7.098;2023-06-10T17:20:25;100606.72;;;27.71;24.35
76285;BME280;65096;50.998;7.098;2023-06-10T17:22:54;100602.56;;;27.67;24.31
76285;BME280;65096;50.998;7.098;2023-06-10T17:25:21;100605.63;;;27.61;24.21
76285;BME280;65096;50.998;7.098;2023-06-10T17:27:47;100614.00;;;27.55;24.57
76285;BME280;65096;50.998;7.098;2023-06-10T17:30:15;100604.22;;;27.56;24.50
76285;BME280;65096;50.998;7.098;2023-06-10T17:32:43;100608.97;;;27.51;24.73
76285;BME280;65096;50.998;7.098;2023-06-10T17:35:10;100613.13;;;27.55;24.74
76285;BME280;65096;50.998;7.098;2023-06-10T17:37:37;100608.91;;;27.52;24.75
76285;BME280;65096;50.998;7.098;2023-06-10T17:40:05;100611.53;;;27.52;24.96
76285;BME280;65096;50.998;7.098;2023-06-10T17:42:31;100621.38;;;27.50;24.94
76285;BME280;65096;50.998;7.098;2023-06-10T17:44:58;100615.13;;;27.51;25.15
76285;BME280;65096;50.998;7.098;2023-06-10T17:47:25;100624.84;;;27.51;25.35
76285;BME280;65096;50.998;7.098;2023-06-10T17:49:53;100628.97;;;27.42;25.15
76285;BME280;65096;50.998;7.098;2023-06-10T17:52:19;100623.19;;;27.36;25.42
76285;BME280;65096;50.998;7.098;2023-06-10T17:54:46;100623.59;;;27.30;25.35
76285;BME280;65096;50.998;7.098;2023-06-10T17:57:13;100629.59;;;27.05;25.42
76285;BME280;65096;50.998;7.098;2023-06-10T17:59:39;100635.53;;;27.08;25.73
76285;BME280;65096;50.998;7.098;2023-06-10T18:02:08;100623.34;;;27.06;25.63
76285;BME280;65096;50.998;7.098;2023-06-10T18:04:35;100641.41;;;27.13;25.45
76285;BME280;65096;50.998;7.098;2023-06-10T18:07:03;100640.28;;;27.03;25.66
76285;BME280;65096;50.998;7.098;2023-06-10T18:09:30;100639.00;;;27.09;25.61
76285;BME280;65096;50.998;7.098;2023-06-10T18:11:57;100643.00;;;27.02;26.29
76285;BME280;65096;50.998;7.098;2023-06-10T18:14:23;100639.41;;;27.03;26.75
76285;BME280;65096;50.998;7.098;2023-06-10T18:16:50;100645.84;;;26.99;26.66
76285;BME280;65096;50.998;7.098;2023-06-10T18:19:17;100643.13;;;27.00;27.10
76285;BME280;65096;50.998;7.098;2023-06-10T18:21:43;100642.34;;;26.98;26.88
76285;BME280;65096;50.998;7.098;2023-06-10T18:24:11;100641.88;;;26.92;26.85
76285;BME280;65096;50.998;7.098;2023-06-10T18:26:38;100647.19;;;26.92;27.16
76285;BME280;65096;50.998;7.098;2023-06-10T18:29:04;100652.38;;;26.93;27.06
76285;BME280;65096;50.998;7.098;2023-06-10T18:31:31;100649.06;;;26.90;27.78
76285;BME280;65096;50.998;7.098;2023-06-10T18:33:58;100650.97;;;26.88;27.29
76285;BME280;65096;50.998;7.098;2023-06-10T18:36:26;100655.47;;;26.86;27.30
76285;BME280;65096;50.998;7.098;2023-06-10T18:38:53;100655.00;;;26.79;27.79
76285;BME280;65096;50.998;7.098;2023-06-10T18:41:21;100663.03;;;26.78;27.99
76285;BME280;65096;50.998;7.098;2023-06-10T18:43:48;100658.84;;;26.74;27.85
76285;BME280;65096;50.998;7.098;2023-06-10T18:46:15;100661.78;;;26.69;27.70
76285;BME280;65096;50.998;7.098;2023-06-10T18:48:41;100664.72;;;26.65;28.38
76285;BME280;65096;50.998;7.098;2023-06-10T18:51:10;100668.59;;;26.59;28.07
76285;BME280;65096;50.998;7.098;2023-06-10T18:53:37;100665.28;;;26.56;28.29
76285;BME280;65096;50.998;7.098;2023-06-10T18:56:03;100666.97;;;26.57;28.28
76285;BME280;65096;50.998;7.098;2023-06-10T18:58:32;100677.75;;;26.54;28.60
76285;BME280;65096;50.998;7.098;2023-06-10T19:01:00;100674.53;;;26.49;28.36
76285;BME280;65096;50.998;7.098;2023-06-10T19:03:26;100673.75;;;26.47;28.39
76285;BME280;65096;50.998;7.098;2023-06-10T19:05:55;100664.03;;;26.33;28.23
76285;BME280;65096;50.998;7.098;2023-06-10T19:08:25;100676.19;;;26.36;28.57
76285;BME280;65096;50.998;7.098;2023-06-10T19:10:51;100684.47;;;26.30;28.78
76285;BME280;65096;50.998;7.098;2023-06-10T19:13:18;100688.41;;;26.23;29.26
76285;BME280;65096;50.998;7.098;2023-06-10T19:15:46;100691.13;;;26.21;29.20
76285;BME280;65096;50.998;7.098;2023-06-10T19:18:13;100694.03;;;26.17;29.66
76285;BME280;65096;50.998;7.098;2023-06-10T19:20:40;100688.34;;;26.09;29.75
76285;BME280;65096;50.998;7.098;2023-06-10T19:23:08;100692.13;;;26.05;29.75
76285;BME280;65096;50.998;7.098;2023-06-10T19:25:35;100701.94;;;26.03;30.39
76285;BME280;65096;50.998;7.098;2023-06-10T19:28:01;100703.38;;;25.93;30.48
76285;BME280;65096;50.998;7.098;2023-06-10T19:30:28;100708.00;;;25.89;30.34
76285;BME280;65096;50.998;7.098;2023-06-10T19:32:58;100712.63;;;25.86;30.67
76285;BME280;65096;50.998;7.098;2023-06-10T19:35:24;100700.06;;;25.73;30.38
76285;BME280;65096;50.998;7.098;2023-06-10T19:37:51;100716.78;;;25.74;30.90
76285;BME280;65096;50.998;7.098;2023-06-10T19:40:18;100722.22;;;25.71;30.89
76285;BME280;65096;50.998;7.098;2023-06-10T19:42:45;100723.31;;;25.67;30.74
76285;BME280;65096;50.998;7.098;2023-06-10T19:45:12;100727.00;;;25.64;30.78
76285;BME280;65096;50.998;7.098;2023-06-10T19:47:39;100729.03;;;25.59;31.18
76285;BME280;65096;50.998;7.098;2023-06-10T19:50:07;100731.00;;;25.56;30.99
76285;BME280;65096;50.998;7.098;2023-06-10T19:52:34;100737.78;;;25.44;31.28
76285;BME280;65096;50.998;7.098;2023-06-10T19:55:01;100735.41;;;25.40;31.57
76285;BME280;65096;50.998;7.098;2023-06-10T19:57:28;100736.44;;;25.37;31.23
76285;BME280;65096;50.998;7.098;2023-06-10T19:59:54;100723.97;;;25.24;31.34
76285;BME280;65096;50.998;7.098;2023-06-10T20:02:21;100745.88;;;25.26;31.75
76285;BME280;65096;50.998;7.098;2023-06-10T20:04:48;100743.66;;;25.18;32.10
76285;BME280;65096;50.998;7.098;2023-06-10T20:07:16;100700.97;;;24.93;31.88
76285;BME280;65096;50.998;7.098;2023-06-10T20:09:43;100744.94;;;25.10;31.82
76285;BME280;65096;50.998;7.098;2023-06-10T20:12:10;100748.66;;;25.06;31.77
76285;BME280;65096;50.998;7.098;2023-06-10T20:14:36;100751.47;;;25.03;32.10
76285;BME280;65096;50.998;7.098;2023-06-10T20:17:03;100756.09;;;24.99;31.60
76285;BME280;65096;50.998;7.098;2023-06-10T20:19:30;100755.53;;;24.93;32.30
76285;BME280;65096;50.998;7.098;2023-06-10T20:21:56;100762.13;;;24.84;31.90
76285;BME280;65096;50.998;7.098;2023-06-10T20:24:25;100761.53;;;24.79;31.62
76285;BME280;65096;50.998;7.098;2023-06-10T20:26:52;100770.66;;;24.72;32.24
76285;BME280;65096;50.998;7.098;2023-06-10T20:29:19;100765.00;;;24.63;32.66
76285;BME280;65096;50.998;7.098;2023-06-10T20:31:45;100776.56;;;24.60;32.64
76285;BME280;65096;50.998;7.098;2023-06-10T20:34:12;100775.84;;;24.57;32.55
76285;BME280;65096;50.998;7.098;2023-06-10T20:36:39;100781.28;;;24.54;32.16
76285;BME280;65096;50.998;7.098;2023-06-10T20:39:06;100718.38;;;24.12;32.82
76285;BME280;65096;50.998;7.098;2023-06-10T20:41:34;100775.44;;;24.47;33.29
76285;BME280;65096;50.998;7.098;2023-06-10T20:44:00;100784.88;;;24.34;33.07
76285;BME280;65096;50.998;7.098;2023-06-10T20:46:27;100769.84;;;24.19;33.01
76285;BME280;65096;50.998;7.098;2023-06-10T20:48:54;100780.47;;;24.17;33.57
76285;BME280;65096;50.998;7.098;2023-06-10T20:51:22;100794.13;;;24.07;33.18
76285;BME280;65096;50.998;7.098;2023-06-10T20:53:48;100789.88;;;24.04;33.72
76285;BME280;65096;50.998;7.098;2023-06-10T20:56:15;100794.38;;;24.02;33.87
76285;BME280;65096;50.998;7.098;2023-06-10T20:58:43;100795.38;;;24.00;33.52
76285;BME280;65096;50.998;7.098;2023-06-10T21:01:10;100797.34;;;23.95;34.37
76285;BME280;65096;50.998;7.098;2023-06-10T21:03:37;100802.75;;;23.92;33.94
76285;BME280;65096;50.998;7.098;2023-06-10T21:06:04;100795.03;;;23.87;33.70
76285;BME280;65096;50.998;7.098;2023-06-10T21:08:31;100793.66;;;23.80;33.77
76285;BME280;65096;50.998;7.098;2023-06-10T21:10:57;100792.06;;;23.76;34.57
76285;BME280;65096;50.998;7.098;2023-06-10T21:13:24;100801.06;;;23.72;34.14
76285;BME280;65096;50.998;7.098;2023-06-10T21:15:52;100804.66;;;23.70;33.92
76285;BME280;65096;50.998;7.098;2023-06-10T21:18:19;100775.13;;;23.45;34.53
76285;BME280;65096;50.998;7.098;2023-06-10T21:20:46;100807.66;;;23.62;33.91
76285;BME280;65096;50.998;7.098;2023-06-10T21:23:12;100811.44;;;23.57;34.08
76285;BME280;65096;50.998;7.098;2023-06-10T21:25:39;100811.69;;;23.51;34.50
76285;BME280;65096;50.998;7.098;2023-06-10T21:28:06;100817.25;;;23.45;33.84
76285;BME280;65096;50.998;7.098;2023-06-10T21:30:33;100819.22;;;23.40;34.00
76285;BME280;65096;50.998;7.098;2023-06-10T21:33:01;100817.69;;;23.34;34.80
76285;BME280;65096;50.998;7.098;2023-06-10T21:35:27;100824.63;;;23.37;34.41
76285;BME280;65096;50.998;7.098;2023-06-10T21:37:54;100816.84;;;23.34;34.56
76285;BME280;65096;50.998;7.098;2023-06-10T21:40:21;100822.25;;;23.31;34.66
76285;BME280;65096;50.998;7.098;2023-06-10T21:42:48;100818.88;;;23.27;34.33
76285;BME280;65096;50.998;7.098;2023-06-10T21:45:15;100817.31;;;23.23;35.00
76285;BME280;65096;50.998;7.098;2023-06-10T21:47:42;100815.66;;;23.21;34.49
76285;BME280;65096;50.998;7.098;2023-06-10T21:50:10;100809.59;;;23.19;34.57
76285;BME280;65096;50.998;7.098;2023-06-10T21:52:37;100820.34;;;23.14;35.09
76285;BME280;65096;50.998;7.098;2023-06-10T21:55:04;100822.25;;;23.10;34.68
76285;BME280;65096;50.998;7.098;2023-06-10T21:57:31;100817.13;;;23.07;35.09
76285;BME280;65096;50.998;7.098;2023-06-10T21:59:57;100816.47;;;23.02;35.37
76285;BME280;65096;50.998;7.098;2023-06-10T22:02:25;100817.41;;;23.01;35.02
76285;BME280;65096;50.998;7.098;2023-06-10T22:04:52;100817.53;;;22.98;35.05
76285;BME280;65096;50.998;7.098;2023-06-10T22:07:20;100819.38;;;22.96;35.36
76285;BME280;65096;50.998;7.098;2023-06-10T22:09:48;100817.97;;;22.88;35.28
76285;BME280;65096;50.998;7.098;2023-06-10T22:12:15;100821.53;;;22.87;35.88
76285;BME280;65096;50.998;7.098;2023-06-10T22:14:42;100820.88;;;22.82;35.53
76285;BME280;65096;50.998;7.098;2023-06-10T22:17:10;100829.81;;;22.78;35.75
76285;BME280;65096;50.998;7.098;2023-06-10T22:19:37;100822.09;;;22.73;36.37
76285;BME280;65096;50.998;7.098;2023-06-10T22:22:06;100824.69;;;22.75;36.37
76285;BME280;65096;50.998;7.098;2023-06-10T22:24:35;100818.66;;;22.71;36.16
76285;BME280;65096;50.998;7.098;2023-06-10T22:27:02;100833.72;;;22.68;36.59
76285;BME280;65096;50.998;7.098;2023-06-10T22:29:29;100828.66;;;22.63;36.30
76285;BME280;65096;50.998;7.098;2023-06-10T22:31:55;100826.16;;;22.60;37.13
76285;BME280;65096;50.998;7.098;2023-06-10T22:34:22;100828.84;;;22.59;36.81
76285;BME280;65096;50.998;7.098;2023-06-10T22:36:49;100823.75;;;22.54;36.56
76285;BME280;65096;50.998;7.098;2023-06-10T22:39:15;100832.63;;;22.52;36.64
76285;BME280;65096;50.998;7.098;2023-06-10T22:41:43;100827.44;;;22.50;37.41
76285;BME280;65096;50.998;7.098;2023-06-10T22:44:10;100824.00;;;22.48;37.29
76285;BME280;65096;50.998;7.098;2023-06-10T22:46:37;100835.50;;;22.46;37.01
76285;BME280;65096;50.998;7.098;2023-06-10T22:49:04;100837.41;;;22.42;37.12
76285;BME280;65096;50.998;7.098;2023-06-10T22:51:31;100843.16;;;22.30;37.34
76285;BME280;65096;50.998;7.098;2023-06-10T22:53:58;100846.69;;;22.29;37.80
76285;BME280;65096;50.998;7.098;2023-06-10T22:56:25;100839.88;;;22.25;37.55
76285;BME280;65096;50.998;7.098;2023-06-10T22:58:53;100839.13;;;22.22;38.33
76285;BME280;65096;50.998;7.098;2023-06-10T23:01:20;100840.31;;;22.13;37.68
76285;BME280;65096;50.998;7.098;2023-06-10T23:03:47;100848.34;;;22.09;37.79
76285;BME280;65096;50.998;7.098;2023-06-10T23:06:13;100841.41;;;22.08;38.12
76285;BME280;65096;50.998;7.098;2023-06-10T23:08:41;100840.91;;;21.98;38.30
76285;BME280;65096;50.998;7.098;2023-06-10T23:11:07;100840.16;;;21.95;38.47
76285;BME280;65096;50.998;7.098;2023-06-10T23:13:34;100826.72;;;21.81;38.59
76285;BME280;65096;50.998;7.098;2023-06-10T23:16:02;100841.19;;;21.91;38.67
76285;BME280;65096;50.998;7.098;2023-06-10T23:18:29;100836.03;;;21.88;38.35
76285;BME280;65096;50.998;7.098;2023-06-10T23:20:55;100842.78;;;21.95;38.55
76285;BME280;65096;50.998;7.098;2023-06-10T23:23:23;100847.06;;;21.97;38.31
76285;BME280;65096;50.998;7.098;2023-06-10T23:25:57;100856.66;;;21.98;38.81
76285;BME280;65096;50.998;7.098;2023-06-10T23:28:24;100853.47;;;21.90;39.02
76285;BME280;65096;50.998;7.098;2023-06-10T23:30:51;100845.69;;;21.87;39.25
76285;BME280;65096;50.998;7.098;2023-06-10T23:33:19;100858.16;;;21.82;38.96
76285;BME280;65096;50.998;7.098;2023-06-10T23:35:46;100852.03;;;21.82;38.83
76285;BME280;65096;50.998;7.098;2023-06-10T23:38:13;100861.84;;;21.77;39.52
76285;BME280;65096;50.998;7.098;2023-06-10T23:40:40;100855.78;;;21.74;39.29
76285;BME280;65096;50.998;7.098;2023-06-10T23:43:07;100829.56;;;21.51;39.74
76285;BME280;65096;50.998;7.098;2023-06-10T23:45:36;100859.47;;;21.70;39.24
76285;BME280;65096;50.998;7.098;2023-06-10T23:48:03;100864.66;;;21.72;39.35
76285;BME280;65096;50.998;7.098;2023-06-10T23:50:31;100854.72;;;21.57;40.10
76285;BME280;65096;50.998;7.098;2023-06-10T23:53:01;100853.75;;;21.59;39.70
76285;BME280;65096;50.998;7.098;2023-06-10T23:55:28;100862.56;;;21.57;39.42
76285;BME280;65096;50.998;7.098;2023-06-10T23:57:54;100854.75;;;21.55;39.87
